Time;durP1;ratioP1;P1;durP2;ratioP2;P2;SDS_P1;SDS_P2;PMS_P1;PMS_P2;Temp;Humidity;BMP_temperature;BMP_pressure;BME280_temperature;BME280_humidity;BME280_pressure;Samples;Min_cycle;Max_cycle;Signal;HPM_P1;HPM_P2
2022/02/17 00:02:12;;;;;;;;;0.00;0.00;;;;;15.69;69.15;100352.69;5000528;28;45383;-74
2022/02/17 00:04:38;;;;;;;;;0.00;0.00;;;;;15.67;69.28;100351.03;5016863;28;45427;-74
2022/02/17 00:07:03;;;;;;;;;0.00;0.00;;;;;15.61;69.06;100346.88;5018254;28;45254;-74
2022/02/17 00:09:29;;;;;;;;;0.25;0.00;;;;;15.61;69.03;100328.06;5017680;28;45546;-74
2022/02/17 00:11:54;;;;;;;;;0.25;0.00;;;;;15.69;69.08;100343.75;5018346;28;46916;-74
2022/02/17 00:14:19;;;;;;;;;0.00;0.00;;;;;15.69;69.03;100333.00;5002435;28;45456;-74
2022/02/17 00:16:47;;;;;;;;;0.00;0.00;;;;;15.69;68.88;100333.00;5014235;28;45297;-74
2022/02/17 00:19:13;;;;;;;;;0.00;0.00;;;;;15.67;69.14;100340.25;4989952;28;45549;-74
2022/02/17 00:21:38;;;;;;;;;0.00;0.00;;;;;15.62;69.27;100321.72;5014085;28;46349;-74
2022/02/17 00:24:04;;;;;;;;;0.00;0.00;;;;;15.62;68.74;100313.66;5017945;28;45166;-74
2022/02/17 00:26:29;;;;;;;;;0.00;0.00;;;;;15.65;69.23;100326.03;4999228;28;45413;-74
2022/02/17 00:28:57;;;;;;;;;0.00;0.00;;;;;15.74;69.08;100336.25;5020487;28;45149;-74
2022/02/17 00:31:22;;;;;;;;;0.00;0.00;;;;;15.69;69.10;100333.84;5021488;28;45436;-74
2022/02/17 00:33:48;;;;;;;;;0.00;0.00;;;;;15.70;69.10;100340.97;5021824;28;45320;-74
2022/02/17 00:36:14;;;;;;;;;0.00;0.00;;;;;15.68;68.88;100352.78;5006758;28;45548;-74
2022/02/17 00:38:39;;;;;;;;;0.00;0.00;;;;;15.66;69.17;100342.09;5011260;28;45613;-74
2022/02/17 00:41:04;;;;;;;;;0.00;0.00;;;;;15.75;69.17;100381.03;5014058;28;46404;-74
2022/02/17 00:43:30;;;;;;;;;0.00;0.00;;;;;15.73;69.22;100378.44;5021879;28;45668;-74
2022/02/17 00:45:55;;;;;;;;;0.00;0.00;;;;;15.70;69.51;100380.44;4997352;28;45463;-74
2022/02/17 00:48:20;;;;;;;;;0.00;0.00;;;;;15.70;69.53;100385.81;4992124;28;45462;-74
2022/02/17 00:50:46;;;;;;;;;0.00;0.00;;;;;15.71;69.49;100393.81;5005536;28;46870;-75
2022/02/17 00:53:11;;;;;;;;;0.00;0.00;;;;;15.69;69.75;100413.72;4994955;28;45402;-74
2022/02/17 00:55:36;;;;;;;;;0.00;0.00;;;;;15.72;69.78;100408.16;5013495;28;45352;-74
2022/02/17 00:58:02;;;;;;;;;0.00;0.00;;;;;15.59;69.67;100394.53;5000598;28;45342;-74
2022/02/17 01:00:27;;;;;;;;;0.00;0.00;;;;;15.56;69.78;100387.50;5000265;28;46300;-74
2022/02/17 01:02:53;;;;;;;;;0.00;0.00;;;;;15.65;69.97;100418.41;5000982;28;45336;-75
2022/02/17 01:05:18;;;;;;;;;0.00;0.00;;;;;15.70;69.84;100437.84;5001695;28;45331;-74
2022/02/17 01:07:44;;;;;;;;;0.00;0.00;;;;;15.65;69.85;100429.16;5001564;28;45631;-74
2022/02/17 01:10:10;;;;;;;;;0.00;0.00;;;;;15.69;70.06;100428.03;4998997;28;46014;-74
2022/02/17 01:12:35;;;;;;;;;0.00;0.00;;;;;15.68;70.20;100434.34;4992037;28;45266;-74
2022/02/17 01:15:01;;;;;;;;;0.00;0.00;;;;;15.64;70.16;100431.94;5001264;28;45364;-74
2022/02/17 01:17:26;;;;;;;;;0.00;0.00;;;;;15.62;70.19;100417.69;4998530;28;45369;-74
2022/02/17 01:19:51;;;;;;;;;0.00;0.00;;;;;15.65;69.93;100426.47;5001134;28;45951;-74
2022/02/17 01:22:17;;;;;;;;;0.00;0.00;;;;;15.69;69.89;100427.16;4997442;28;45588;-74
2022/02/17 01:24:42;;;;;;;;;0.00;0.00;;;;;15.67;69.66;100434.44;4999926;28;45327;-74
2022/02/17 01:27:08;;;;;;;;;0.00;0.00;;;;;15.59;69.76;100415.22;5004680;28;45411;-74
2022/02/17 01:29:33;;;;;;;;;0.00;0.00;;;;;15.45;70.14;100398.06;4999899;28;45385;-74
2022/02/17 01:31:59;;;;;;;;;0.75;0.00;;;;;15.56;69.72;100427.00;5000911;28;45367;-74
2022/02/17 01:34:24;;;;;;;;;0.00;0.00;;;;;15.67;69.88;100464.03;5000852;28;45320;-74
2022/02/17 01:36:49;;;;;;;;;0.00;0.00;;;;;15.54;69.94;100459.38;5001796;28;45467;-75
2022/02/17 01:39:15;;;;;;;;;0.00;0.00;;;;;15.50;69.93;100467.69;5008656;28;46602;-74
2022/02/17 01:41:40;;;;;;;;;0.00;0.00;;;;;15.54;70.13;100472.81;4999081;28;45536;-74
2022/02/17 01:44:06;;;;;;;;;0.00;0.00;;;;;15.49;69.88;100464.16;4999626;28;45455;-74
2022/02/17 01:46:49;;;;;;;;;0.00;0.00;;;;;15.50;70.22;100492.81;5007249;28;45312;-74
2022/02/17 01:49:15;;;;;;;;;0.00;0.00;;;;;15.46;70.08;100477.78;5014182;28;47093;-74
2022/02/17 01:51:40;;;;;;;;;0.00;0.00;;;;;15.58;69.98;100489.66;5012653;28;45547;-74
2022/02/17 01:54:07;;;;;;;;;2.00;0.00;;;;;15.50;69.78;100465.00;5017577;28;45285;-74
2022/02/17 01:56:36;;;;;;;;;1.00;0.00;;;;;15.55;70.01;100479.06;5010936;28;45427;-74
2022/02/17 01:59:07;;;;;;;;;0.00;0.00;;;;;15.61;69.72;100496.69;5016594;28;48534;-74
2022/02/17 02:01:33;;;;;;;;;0.00;0.00;;;;;15.61;69.57;100500.25;5016142;28;45479;-74
2022/02/17 02:03:59;;;;;;;;;0.00;0.00;;;;;15.61;69.35;100502.94;5007554;28;45346;-74
2022/02/17 02:06:24;;;;;;;;;0.50;0.00;;;;;15.55;69.43;100496.09;5010348;28;45310;-74
2022/02/17 02:08:50;;;;;;;;;1.00;0.00;;;;;15.61;69.03;100505.63;5019017;28;45323;-74
2022/02/17 02:11:16;;;;;;;;;1.25;0.00;;;;;15.50;68.81;100497.28;5019611;28;45281;-74
2022/02/17 02:13:41;;;;;;;;;0.00;0.00;;;;;15.46;68.46;100491.22;5000277;28;45764;-74
2022/02/17 02:16:06;;;;;;;;;0.00;0.00;;;;;15.55;68.65;100509.53;5010137;28;45483;-74
2022/02/17 02:18:33;;;;;;;;;5.00;0.00;;;;;15.30;68.25;100476.91;5019104;28;45533;-74
2022/02/17 02:20:59;;;;;;;;;0.00;0.00;;;;;15.57;68.29;100528.28;5018491;28;45425;-74
2022/02/17 02:23:25;;;;;;;;;0.00;0.00;;;;;15.52;68.03;100525.84;5019782;28;45404;-74
2022/02/17 02:25:51;;;;;;;;;0.00;0.00;;;;;15.53;67.94;100511.44;5019650;28;45815;-74
2022/02/17 02:28:23;;;;;;;;;2.00;0.00;;;;;15.49;67.66;100512.56;5024339;28;45473;-74
2022/02/17 02:30:49;;;;;;;;;0.00;0.00;;;;;15.57;67.81;100518.38;5018207;28;45451;-73
2022/02/17 02:33:15;;;;;;;;;2.00;0.00;;;;;15.41;67.33;100496.00;5019087;28;45416;-74
2022/02/17 02:35:41;;;;;;;;;0.00;0.00;;;;;15.40;67.65;100490.69;5019641;28;45428;-74
2022/02/17 02:38:08;;;;;;;;;1.75;1.00;;;;;15.54;67.30;100528.47;5027880;28;46059;-74
2022/02/17 02:40:33;;;;;;;;;0.00;0.00;;;;;15.49;67.43;100530.53;5020205;28;45418;-74
2022/02/17 02:42:59;;;;;;;;;1.75;0.25;;;;;15.53;67.21;100545.53;4991890;28;45255;-73
2022/02/17 02:45:25;;;;;;;;;3.25;0.25;;;;;15.49;66.80;100550.22;5019135;28;45458;-74
2022/02/17 02:47:50;;;;;;;;;0.00;0.00;;;;;15.46;65.88;100553.09;5018645;28;46147;-74
2022/02/17 02:50:15;;;;;;;;;1.75;0.00;;;;;15.42;65.49;100548.84;5018807;28;45409;-74
2022/02/17 02:52:41;;;;;;;;;3.00;1.00;;;;;15.30;64.59;100539.63;5001575;28;45628;-74
2022/02/17 02:55:07;;;;;;;;;1.50;1.00;;;;;15.32;64.67;100553.00;4991583;28;45587;-74
2022/02/17 02:57:32;;;;;;;;;2.25;0.25;;;;;15.33;63.97;100568.16;4990884;28;47345;-74
2022/02/17 02:59:57;;;;;;;;;1.25;1.00;;;;;15.08;63.66;100515.72;4998099;28;45421;-74
2022/02/17 03:02:23;;;;;;;;;2.00;1.00;;;;;15.16;63.03;100523.38;4996516;28;45693;-74
2022/02/17 03:04:48;;;;;;;;;3.25;2.25;;;;;15.22;63.37;100543.69;5019673;28;45630;-74
2022/02/17 03:07:13;;;;;;;;;2.75;1.00;;;;;15.22;62.96;100560.72;5001218;28;47460;-74
2022/02/17 03:09:39;;;;;;;;;5.25;2.25;;;;;15.16;63.01;100536.84;5018569;28;45377;-74
2022/02/17 03:12:05;;;;;;;;;6.50;2.00;;;;;15.14;62.76;100546.81;5017265;28;45548;-74
2022/02/17 03:14:30;;;;;;;;;2.50;1.00;;;;;15.18;62.85;100551.06;5018782;28;45650;-74
2022/02/17 03:16:55;;;;;;;;;0.00;0.00;;;;;15.11;62.52;100546.97;5018708;28;45571;-74
2022/02/17 03:19:21;;;;;;;;;2.25;1.25;;;;;15.10;62.34;100559.56;5011909;28;45309;-74
2022/02/17 03:21:46;;;;;;;;;2.25;1.25;;;;;15.16;62.30;100561.88;5011974;28;45503;-74
2022/02/17 03:24:11;;;;;;;;;6.50;2.00;;;;;15.14;61.93;100554.88;5008958;28;45214;-73
2022/02/17 03:26:37;;;;;;;;;0.75;0.75;;;;;15.01;62.09;100542.06;5025559;28;45344;-73
2022/02/17 03:29:03;;;;;;;;;1.00;1.00;;;;;15.06;61.35;100549.91;5010769;28;45299;-74
2022/02/17 03:31:29;;;;;;;;;1.75;1.75;;;;;15.09;61.18;100559.63;5014279;28;45484;-73
2022/02/17 03:33:54;;;;;;;;;5.25;1.25;;;;;14.97;61.12;100540.53;5014299;28;45321;-73
2022/02/17 03:36:19;;;;;;;;;3.25;1.00;;;;;15.05;61.12;100558.03;5018200;28;45317;-74
2022/02/17 03:38:45;;;;;;;;;1.50;1.25;;;;;15.11;61.06;100579.22;5028899;28;45382;-74
2022/02/17 03:41:10;;;;;;;;;3.25;1.50;;;;;15.02;61.05;100569.84;5004664;28;45295;-73
2022/02/17 03:43:35;;;;;;;;;4.50;0.75;;;;;15.10;60.10;100590.91;5018284;28;45384;-74
2022/02/17 03:46:01;;;;;;;;;5.75;2.50;;;;;15.07;60.36;100581.22;5011228;28;45452;-74
2022/02/17 03:48:26;;;;;;;;;6.00;3.00;;;;;14.98;60.32;100582.59;5017746;28;45491;-74
2022/02/17 03:50:52;;;;;;;;;3.00;2.00;;;;;15.03;60.49;100581.47;5017233;28;45366;-73
2022/02/17 03:53:17;;;;;;;;;2.00;2.00;;;;;15.05;60.46;100590.31;5016507;28;45431;-74
2022/02/17 03:55:43;;;;;;;;;4.25;1.75;;;;;15.01;60.38;100603.91;5013242;28;45860;-74
2022/02/17 03:58:08;;;;;;;;;1.00;1.00;;;;;14.91;60.26;100604.47;5002495;28;45389;-74
2022/02/17 04:00:34;;;;;;;;;5.50;4.00;;;;;14.96;60.20;100607.78;5012025;28;45314;-73
2022/02/17 04:03:02;;;;;;;;;2.50;2.00;;;;;14.96;60.37;100618.53;5022415;28;45272;-73
2022/02/17 04:05:28;;;;;;;;;5.00;2.75;;;;;14.99;60.36;100637.19;5022547;28;46965;-74
2022/02/17 04:07:53;;;;;;;;;6.00;1.00;;;;;14.98;60.60;100643.53;5022149;28;45491;-73
2022/02/17 04:10:18;;;;;;;;;4.00;3.00;;;;;14.87;60.57;100627.06;5017541;28;45229;-73
2022/02/17 04:12:44;;;;;;;;;2.75;1.25;;;;;14.92;60.48;100638.50;5008684;28;45218;-73
2022/02/17 04:15:10;;;;;;;;;2.00;1.25;;;;;14.96;60.25;100664.25;5020885;28;46850;-74
2022/02/17 04:17:35;;;;;;;;;1.75;1.75;;;;;14.96;60.10;100667.78;5021847;28;45262;-73
2022/02/17 04:20:02;;;;;;;;;5.00;2.75;;;;;14.88;59.92;100651.19;5022236;28;45385;-73
2022/02/17 04:22:27;;;;;;;;;4.00;2.25;;;;;14.89;59.86;100666.38;5016230;28;46485;-74
2022/02/17 04:24:53;;;;;;;;;5.75;3.00;;;;;14.89;59.60;100684.31;5012545;28;45473;-73
2022/02/17 04:27:18;;;;;;;;;7.25;3.00;;;;;14.83;59.15;100658.63;5023725;28;45472;-74
2022/02/17 04:29:43;;;;;;;;;2.50;2.00;;;;;14.84;59.13;100678.31;4995219;28;45440;-73
2022/02/17 04:32:09;;;;;;;;;3.50;1.75;;;;;14.87;58.61;100684.41;5014383;28;45294;-74
2022/02/17 04:34:35;;;;;;;;;8.00;2.50;;;;;14.82;58.49;100695.38;5013280;28;45984;-73
2022/02/17 04:37:01;;;;;;;;;4.75;3.00;;;;;14.75;58.13;100701.13;4993811;28;45476;-73
2022/02/17 04:39:27;;;;;;;;;5.50;3.00;;;;;14.73;57.93;100703.03;5015595;28;45331;-73
2022/02/17 04:44:36;;;;;;;;;4.50;3.00;;;;;14.73;57.83;100722.69;5003159;28;45835;-74
2022/02/17 04:47:01;;;;;;;;;13.25;3.75;;;;;14.74;57.63;100737.03;4985362;28;46099;-73
2022/02/17 04:49:26;;;;;;;;;7.00;4.50;;;;;14.74;57.17;100737.88;5007205;28;45360;-73
2022/02/17 04:51:52;;;;;;;;;6.25;4.00;;;;;14.61;57.30;100718.81;5013890;28;45433;-73
2022/02/17 04:54:17;;;;;;;;;4.75;3.00;;;;;14.67;56.96;100746.31;4991898;28;47182;-73
2022/02/17 04:56:43;;;;;;;;;7.00;5.00;;;;;14.64;56.77;100756.28;5004092;28;45219;-73
2022/02/17 04:59:08;;;;;;;;;7.50;5.00;;;;;14.51;56.51;100746.19;4992766;28;45358;-73
2022/02/17 05:01:34;;;;;;;;;6.75;3.25;;;;;14.53;56.57;100776.50;5007815;28;45364;-73
2022/02/17 05:04:00;;;;;;;;;8.00;3.25;;;;;14.33;56.43;100742.56;5003832;28;46785;-73
2022/02/17 05:06:25;;;;;;;;;4.50;3.50;;;;;14.43;55.99;100760.88;5004470;28;45420;-73
2022/02/17 05:08:50;;;;;;;;;7.00;5.00;;;;;14.38;55.76;100757.53;5003871;28;45242;-73
2022/02/17 05:11:16;;;;;;;;;12.50;5.50;;;;;14.51;55.71;100797.22;5004926;28;45250;-73
2022/02/17 05:13:41;;;;;;;;;6.50;5.00;;;;;14.40;55.90;100774.44;5011332;28;45567;-73
2022/02/17 05:16:07;;;;;;;;;7.25;4.25;;;;;14.31;55.10;100756.06;5020635;28;45462;-73
2022/02/17 05:18:32;;;;;;;;;5.50;3.75;;;;;14.49;55.55;100786.53;5011705;28;45365;-73
2022/02/17 05:20:57;;;;;;;;;6.50;3.75;;;;;14.45;55.31;100799.25;5008635;28;45467;-73
2022/02/17 05:23:23;;;;;;;;;7.50;3.75;;;;;14.45;54.55;100788.50;5021024;28;46092;-73
2022/02/17 05:25:48;;;;;;;;;3.75;3.00;;;;;14.45;54.93;100810.00;5016741;28;45871;-73
2022/02/17 05:28:15;;;;;;;;;4.75;4.75;;;;;14.42;54.71;100807.44;5014678;28;45446;-73
2022/02/17 05:30:45;;;;;;;;;4.75;3.25;;;;;14.46;54.66;100813.53;5018170;28;45240;-73
2022/02/17 05:33:12;;;;;;;;;6.50;5.00;;;;;14.37;54.37;100809.47;5020909;28;45947;-73
2022/02/17 05:35:38;;;;;;;;;7.50;3.00;;;;;14.42;54.67;100830.75;5020652;28;45578;-73
2022/02/17 05:38:04;;;;;;;;;8.75;4.75;;;;;14.35;54.05;100831.97;5022130;28;45281;-73
2022/02/17 05:40:30;;;;;;;;;7.75;5.75;;;;;14.38;53.68;100838.09;5019459;28;45262;-73
2022/02/17 05:42:55;;;;;;;;;6.00;4.00;;;;;14.32;54.10;100819.56;5013607;28;46079;-73
2022/02/17 05:45:21;;;;;;;;;5.25;4.50;;;;;14.35;54.39;100831.97;5014327;28;45328;-73
2022/02/17 05:47:47;;;;;;;;;4.25;3.75;;;;;14.26;54.09;100828.75;5002260;28;45459;-73
2022/02/17 05:50:12;;;;;;;;;8.50;4.50;;;;;14.32;54.14;100834.81;4985763;28;45400;-73
2022/02/17 05:52:38;;;;;;;;;6.00;4.00;;;;;14.22;53.99;100821.81;5017215;28;45464;-73
2022/02/17 05:55:03;;;;;;;;;6.75;4.50;;;;;14.24;54.28;100830.66;5019979;28;45429;-73
2022/02/17 05:57:29;;;;;;;;;6.00;4.25;;;;;14.29;54.83;100840.31;4991309;28;45278;-73
2022/02/17 05:59:54;;;;;;;;;6.75;4.00;;;;;14.17;54.51;100834.56;4988608;28;45444;-73
2022/02/17 06:02:19;;;;;;;;;6.75;4.50;;;;;14.29;54.37;100832.28;5015842;28;46179;-73
2022/02/17 06:04:45;;;;;;;;;9.25;5.00;;;;;14.19;54.61;100819.25;5021239;28;45137;-73
2022/02/17 06:07:13;;;;;;;;;4.50;4.50;;;;;14.32;54.56;100849.09;5028317;28;45409;-73
2022/02/17 06:09:39;;;;;;;;;8.25;3.00;;;;;14.32;54.35;100867.91;4989983;28;45502;-73
2022/02/17 06:12:05;;;;;;;;;9.75;5.75;;;;;14.32;54.20;100853.63;5001867;28;47233;-73
2022/02/17 06:14:31;;;;;;;;;8.25;4.25;;;;;14.30;54.42;100851.00;5017768;28;45416;-73
2022/02/17 06:16:56;;;;;;;;;9.00;5.00;;;;;14.23;54.82;100852.19;4999912;28;45557;-73
2022/02/17 06:19:21;;;;;;;;;5.75;4.75;;;;;14.23;54.97;100865.63;5015048;28;45590;-73
2022/02/17 06:21:47;;;;;;;;;9.00;5.00;;;;;14.26;54.78;100871.72;5004450;28;45326;-73
2022/02/17 06:24:12;;;;;;;;;6.75;5.00;;;;;14.23;54.35;100868.31;5003235;28;45413;-73
2022/02/17 06:26:37;;;;;;;;;10.00;5.75;;;;;14.24;54.87;100867.38;5011585;28;45278;-73
2022/02/17 06:29:03;;;;;;;;;8.75;5.75;;;;;14.21;55.44;100863.00;5021430;28;45420;-73
2022/02/17 06:31:28;;;;;;;;;10.50;7.75;;;;;14.26;55.10;100882.47;5017291;28;45262;-74
2022/02/17 06:33:53;;;;;;;;;9.50;7.25;;;;;14.21;55.24;100879.13;5015574;28;45620;-73
2022/02/17 06:36:19;;;;;;;;;5.50;3.50;;;;;14.19;55.47;100877.47;5020525;28;45376;-72
2022/02/17 06:38:45;;;;;;;;;10.75;3.75;;;;;14.22;55.55;100904.19;5029449;28;45213;-72
2022/02/17 06:41:10;;;;;;;;;8.50;4.50;;;;;14.20;55.47;100916.78;5015027;28;45992;-73
2022/02/17 06:43:36;;;;;;;;;17.00;7.00;;;;;14.20;55.29;100932.88;5013966;28;45291;-73
2022/02/17 06:46:03;;;;;;;;;13.75;5.50;;;;;14.07;55.38;100919.16;5014326;28;45394;-73
2022/02/17 06:48:28;;;;;;;;;8.75;6.50;;;;;14.06;54.96;100918.25;5007837;28;45499;-73
2022/02/17 06:50:54;;;;;;;;;10.50;6.50;;;;;14.07;54.94;100916.47;5009538;28;45404;-73
2022/02/17 06:53:19;;;;;;;;;11.75;7.00;;;;;14.14;55.48;100923.28;4996331;28;45413;-73
2022/02/17 06:55:45;;;;;;;;;15.75;5.50;;;;;14.05;55.01;100916.53;5015582;28;45308;-73
2022/02/17 06:58:11;;;;;;;;;8.25;6.50;;;;;14.04;54.96;100919.28;5009318;28;45772;-75
2022/02/17 07:00:39;;;;;;;;;10.00;7.00;;;;;13.88;54.91;100906.53;5017506;28;45551;-73
2022/02/17 07:03:06;;;;;;;;;10.50;5.75;;;;;14.07;54.83;100928.06;5014532;28;45609;-76
2022/02/17 07:05:33;;;;;;;;;9.50;6.25;;;;;13.95;54.85;100919.66;5002022;28;45584;-78
2022/02/17 07:07:58;;;;;;;;;7.75;6.00;;;;;13.86;54.75;100897.66;5016290;28;45497;-78
2022/02/17 07:13:08;;;;;;;;;8.50;5.75;;;;;13.89;54.69;100912.78;5013036;28;45360;-79
2022/02/17 07:15:36;;;;;;;;;11.25;7.25;;;;;13.69;54.64;100905.56;4991483;28;45399;-78
2022/02/17 07:18:07;;;;;;;;;8.50;6.25;;;;;13.93;54.59;100929.59;4999673;28;46335;-80
2022/02/17 07:20:35;;;;;;;;;6.75;6.00;;;;;13.89;54.75;100945.84;5011512;28;48173;-74
2022/02/17 07:23:02;;;;;;;;;10.00;5.00;;;;;13.93;54.50;100943.03;5017759;28;45446;-74
2022/02/17 07:25:28;;;;;;;;;12.50;6.25;;;;;13.95;54.81;100943.81;5010394;28;45467;-73
2022/02/17 07:27:54;;;;;;;;;8.25;4.25;;;;;13.94;54.69;100950.16;5002817;28;45475;-74
2022/02/17 07:30:19;;;;;;;;;11.75;4.25;;;;;13.98;54.66;100962.47;5015065;28;45917;-72
2022/02/17 07:32:44;;;;;;;;;12.25;7.00;;;;;13.82;54.54;100956.91;4995170;28;45614;-77
2022/02/17 07:35:11;;;;;;;;;8.75;6.75;;;;;13.80;54.65;100958.75;5016018;28;45374;-72
2022/02/17 07:37:37;;;;;;;;;7.75;5.25;;;;;13.80;54.48;100964.13;5014962;28;45309;-74
2022/02/17 07:40:04;;;;;;;;;13.25;9.50;;;;;13.76;54.61;100967.91;5010319;28;45506;-74
2022/02/17 07:42:30;;;;;;;;;10.00;7.50;;;;;13.98;54.85;100995.59;5014999;28;45414;-73
2022/02/17 07:44:56;;;;;;;;;11.75;9.50;;;;;13.77;55.05;100961.59;5014071;28;45379;-73
2022/02/17 07:47:23;;;;;;;;;8.50;6.25;;;;;13.79;55.01;100975.81;5018789;28;45420;-73
2022/02/17 07:49:49;;;;;;;;;7.75;6.00;;;;;14.00;55.18;101022.31;5018375;28;45312;-73
2022/02/17 07:52:15;;;;;;;;;10.00;7.00;;;;;13.77;55.29;100988.44;5015396;28;45305;-73
2022/02/17 07:54:40;;;;;;;;;9.25;5.00;;;;;13.83;55.30;100997.09;5018746;28;45438;-68
2022/02/17 07:57:06;;;;;;;;;11.25;5.75;;;;;13.86;55.38;100998.75;5014859;28;45436;-74
2022/02/17 07:59:31;;;;;;;;;8.75;8.00;;;;;13.95;55.38;100994.81;5011701;28;45413;-74
2022/02/17 08:01:57;;;;;;;;;9.00;8.00;;;;;14.04;55.44;101014.09;5014746;28;45354;-74
2022/02/17 08:04:23;;;;;;;;;21.00;15.25;;;;;13.83;55.58;100982.78;5012358;28;45451;-74
2022/02/17 08:06:48;;;;;;;;;29.50;20.00;;;;;13.80;55.50;100977.53;5006372;28;45536;-75
2022/02/17 08:09:13;;;;;;;;;28.50;26.00;;;;;13.82;55.52;100992.66;5017279;28;46269;-74
2022/02/17 08:11:39;;;;;;;;;27.50;22.25;;;;;13.90;55.48;100990.53;4991058;28;45430;-74
2022/02/17 08:14:04;;;;;;;;;20.75;15.75;;;;;13.93;55.51;100996.69;5016178;28;45550;-74
2022/02/17 08:16:30;;;;;;;;;17.25;11.75;;;;;13.78;55.09;100985.69;5006787;28;45535;-74
2022/02/17 08:18:55;;;;;;;;;16.50;10.00;;;;;13.80;55.57;100996.31;5006807;28;47379;-74
2022/02/17 08:21:21;;;;;;;;;14.50;9.00;;;;;14.00;55.82;101035.75;5009856;28;45421;-74
2022/02/17 08:23:47;;;;;;;;;9.50;7.00;;;;;14.01;55.35;101027.63;5008913;28;45439;-74
2022/02/17 08:26:13;;;;;;;;;12.75;6.00;;;;;13.76;55.43;101010.81;5016938;28;45518;-74
2022/02/17 08:28:38;;;;;;;;;14.50;8.25;;;;;13.81;55.54;101038.34;5014553;28;45421;-74
2022/02/17 08:31:04;;;;;;;;;13.50;8.75;;;;;13.79;55.51;101053.63;5015505;28;45257;-74
2022/02/17 08:33:29;;;;;;;;;10.50;8.75;;;;;13.99;55.48;101079.66;5015315;28;45601;-74
2022/02/17 08:35:54;;;;;;;;;14.50;8.75;;;;;13.95;55.33;101086.06;4996226;28;45844;-74
2022/02/17 08:38:20;;;;;;;;;8.25;7.00;;;;;13.88;55.59;101064.88;5015759;28;46083;-74
2022/02/17 08:40:45;;;;;;;;;9.25;6.75;;;;;13.81;55.46;101057.13;5015423;28;45218;-74
2022/02/17 08:43:13;;;;;;;;;7.75;6.75;;;;;13.99;55.17;101091.25;5017731;28;45550;-73
2022/02/17 08:45:43;;;;;;;;;17.50;9.00;;;;;13.98;55.19;101076.09;5019550;28;45508;-74
2022/02/17 08:48:10;;;;;;;;;8.75;5.25;;;;;13.77;55.01;101052.81;5019189;28;45700;-74
2022/02/17 08:50:38;;;;;;;;;17.50;9.50;;;;;13.85;55.24;101081.09;5019495;28;45215;-74
2022/02/17 08:53:04;;;;;;;;;10.75;7.75;;;;;14.02;55.25;101109.91;5014669;28;45971;-74
2022/02/17 08:55:29;;;;;;;;;10.25;7.00;;;;;13.94;55.05;101087.88;5020619;28;45715;-74
2022/02/17 08:57:55;;;;;;;;;10.00;6.75;;;;;14.00;55.06;101101.06;5022055;28;45519;-74
2022/02/17 09:00:21;;;;;;;;;11.75;7.75;;;;;13.79;55.26;101053.63;5013322;28;45435;-75
2022/02/17 09:02:46;;;;;;;;;10.25;6.75;;;;;13.86;55.31;101069.41;5017617;28;45539;-68
2022/02/17 09:05:12;;;;;;;;;10.00;5.25;;;;;13.98;54.92;101092.19;5019223;28;45498;-70
2022/02/17 09:07:37;;;;;;;;;11.75;8.25;;;;;13.98;55.15;101089.53;5014020;28;48358;-72
2022/02/17 09:10:05;;;;;;;;;13.50;9.25;;;;;13.86;54.90;101064.03;5010338;28;45457;-71
2022/02/17 09:12:31;;;;;;;;;13.25;8.25;;;;;13.83;55.10;101061.50;5006661;28;45504;-72
2022/02/17 09:14:57;;;;;;;;;12.75;10.25;;;;;13.82;55.09;101077.66;5009569;28;45543;-71
2022/02/17 09:17:22;;;;;;;;;10.50;7.75;;;;;14.02;54.94;101099.19;4994387;28;48172;-71
2022/02/17 09:19:48;;;;;;;;;8.25;7.25;;;;;13.80;54.85;101056.25;4997677;28;45526;-71
2022/02/17 09:22:13;;;;;;;;;10.50;7.75;;;;;13.81;55.02;101086.63;5006208;28;45503;-71
2022/02/17 09:24:38;;;;;;;;;13.25;9.25;;;;;14.08;54.95;101127.56;5013087;28;45680;-71
2022/02/17 09:27:04;;;;;;;;;11.50;8.50;;;;;13.74;54.99;101072.59;5024318;28;46054;-71
2022/02/17 09:29:29;;;;;;;;;9.75;6.25;;;;;14.08;54.72;101141.88;5022779;28;45440;-71
2022/02/17 09:31:55;;;;;;;;;11.75;7.50;;;;;14.02;54.83;101128.69;5012264;28;45384;-71
2022/02/17 09:34:21;;;;;;;;;10.75;6.75;;;;;13.84;54.50;101089.19;5016713;28;45539;-71
2022/02/17 09:36:46;;;;;;;;;12.00;7.00;;;;;13.89;54.74;101108.66;4991164;28;46777;-71
2022/02/17 09:39:12;;;;;;;;;9.50;6.50;;;;;13.82;54.79;101107.16;5018585;28;45329;-71
2022/02/17 09:41:37;;;;;;;;;10.50;7.75;;;;;13.91;54.63;101130.94;5017417;28;45433;-71
2022/02/17 09:44:07;;;;;;;;;8.25;5.75;;;;;14.08;54.51;101158.00;5015516;28;45652;-71
2022/02/17 09:46:33;;;;;;;;;9.25;6.00;;;;;14.09;54.56;101164.22;5012718;28;46179;-71
2022/02/17 09:49:02;;;;;;;;;15.75;7.50;;;;;13.97;54.65;101143.25;5007948;28;45410;-71
2022/02/17 09:51:30;;;;;;;;;9.50;5.75;;;;;13.95;54.88;101145.09;5018721;28;45476;-71
2022/02/17 09:53:56;;;;;;;;;5.25;2.75;;;;;14.07;54.83;101160.72;5006343;28;45546;-71
2022/02/17 09:56:22;;;;;;;;;8.50;6.00;;;;;14.07;54.86;101164.28;5012923;28;45374;-71
2022/02/17 09:58:52;;;;;;;;;11.50;5.75;;;;;14.07;54.64;101164.28;5000178;28;45855;-71
2022/02/17 10:01:20;;;;;;;;;11.75;9.00;;;;;13.91;54.58;101136.31;5019368;28;45450;-71
2022/02/17 10:03:46;;;;;;;;;16.75;10.25;;;;;13.89;54.48;101139.03;5004424;28;45528;-71
2022/02/17 10:06:14;;;;;;;;;11.00;7.00;;;;;13.77;54.24;101127.94;5008855;28;46250;-72
2022/02/17 10:08:40;;;;;;;;;12.75;8.75;;;;;13.96;54.59;101158.47;5016091;28;45816;-71
2022/02/17 10:11:09;;;;;;;;;13.50;6.00;;;;;14.11;54.66;101172.22;5002033;28;45496;-71
2022/02/17 10:13:35;;;;;;;;;8.50;7.00;;;;;13.96;54.36;101161.16;5005576;28;45456;-71
2022/02/17 10:16:02;;;;;;;;;9.75;6.75;;;;;13.89;54.21;101147.09;5017065;28;46594;-71
2022/02/17 10:18:30;;;;;;;;;10.00;6.75;;;;;14.21;54.44;101189.69;5011742;28;45666;-71
2022/02/17 10:21:07;;;;;;;;;18.00;6.25;;;;;14.22;54.35;101186.09;5007769;28;45373;-71
2022/02/17 10:23:39;;;;;;;;;8.50;6.50;;;;;14.05;54.46;101168.84;5016031;28;45774;-71
2022/02/17 10:26:10;;;;;;;;;9.75;5.00;;;;;14.08;54.50;101160.69;5024628;28;47395;-71
2022/02/17 10:28:39;;;;;;;;;10.00;5.25;;;;;14.28;54.56;101201.94;5012547;28;45446;-72
2022/02/17 10:31:07;;;;;;;;;8.75;5.25;;;;;14.13;53.98;101170.34;5010172;28;45483;-71
2022/02/17 10:33:37;;;;;;;;;9.50;4.25;;;;;14.22;54.04;101194.16;4994299;28;45543;-71
2022/02/17 10:36:03;;;;;;;;;10.25;7.00;;;;;14.11;54.19;101166.84;5006143;28;45557;-71
2022/02/17 10:38:28;;;;;;;;;5.50;5.50;;;;;14.11;53.71;101166.84;4999336;28;45424;-73
2022/02/17 10:40:54;;;;;;;;;12.75;7.25;;;;;14.26;54.02;101215.41;5018711;28;45329;-72
2022/02/17 10:43:22;;;;;;;;;7.75;5.25;;;;;14.16;53.49;101203.31;5009160;28;45443;-72
2022/02/17 10:45:49;;;;;;;;;8.75;7.75;;;;;14.30;53.35;101212.63;4986542;28;46232;-71
2022/02/17 10:48:26;;;;;;;;;9.00;5.75;;;;;13.98;53.38;101151.25;4996503;28;45942;-72
2022/02/17 10:51:16;;;;;;;;;12.25;6.50;;;;;14.13;53.58;101181.94;5009484;28;45444;-71
2022/02/17 10:53:47;;;;;;;;;9.75;8.00;;;;;14.19;53.54;101207.69;5014102;28;45448;-71
2022/02/17 10:56:21;;;;;;;;;13.00;7.00;;;;;14.23;53.04;101229.00;5013072;28;46599;-71
2022/02/17 10:58:47;;;;;;;;;7.25;6.25;;;;;14.12;53.30;101212.44;5008777;28;45583;-71
2022/02/17 11:01:15;;;;;;;;;11.75;4.50;;;;;14.29;53.17;101240.41;5014398;28;45448;-71
2022/02/17 11:03:41;;;;;;;;;11.25;5.25;;;;;14.36;53.22;101236.53;5010775;28;45298;-71
2022/02/17 11:06:11;;;;;;;;;16.25;8.75;;;;;14.22;52.86;101207.56;5009274;28;46766;-71
2022/02/17 11:08:37;;;;;;;;;8.25;7.25;;;;;14.39;52.98;101250.72;4995975;28;45803;-71
2022/02/17 11:11:04;;;;;;;;;5.25;3.25;;;;;14.29;52.78;101225.19;5015091;28;45443;-71
2022/02/17 11:13:31;;;;;;;;;5.00;4.25;;;;;14.23;52.93;101228.09;5008520;28;45575;-71
2022/02/17 11:15:58;;;;;;;;;6.00;4.00;;;;;14.38;52.44;101251.66;5006863;28;45534;-71
2022/02/17 11:18:24;;;;;;;;;10.75;7.00;;;;;14.18;52.38;101216.66;5010605;28;45674;-71
2022/02/17 11:20:53;;;;;;;;;9.25;6.00;;;;;14.17;52.41;101204.19;5014280;28;45325;-71
2022/02/17 11:23:19;;;;;;;;;8.25;5.00;;;;;14.27;52.70;101225.22;5005797;28;45484;-71